Time;durP1;ratioP1;P1;durP2;ratioP2;P2;SDS_P1;SDS_P2;PMS_P1;PMS_P2;Temp;Humidity;BMP_temperature;BMP_pressure;BME280_temperature;BME280_humidity;BME280_pressure;Samples;Min_cycle;Max_cycle;Signal;HPM_P1;HPM_P2
2022/05/28 00:02:05;;;;;;;9.40;6.88;;;14.10;99.90;;;;;;5292524;28;20106;-78
2022/05/28 00:04:36;;;;;;;8.98;6.70;;;14.10;99.90;;;;;;5292286;28;20929;-78
2022/05/28 00:07:07;;;;;;;10.63;6.75;;;13.60;99.90;;;;;;5292178;28;20024;-78
2022/05/28 00:09:38;;;;;;;10.27;6.60;;;13.80;99.90;;;;;;5292155;28;20062;-78
2022/05/28 00:12:09;;;;;;;9.55;7.20;;;13.90;99.90;;;;;;5292111;27;20051;-78
2022/05/28 00:14:40;;;;;;;7.43;6.57;;;14.00;99.90;;;;;;5292047;28;20024;-78
2022/05/28 00:17:11;;;;;;;12.70;6.85;;;13.80;99.90;;;;;;5292169;28;20035;-78
2022/05/28 00:19:43;;;;;;;7.78;6.80;;;13.50;99.90;;;;;;5291951;28;20445;-78
2022/05/28 00:22:14;;;;;;;8.05;6.63;;;13.50;99.90;;;;;;5291879;28;20020;-78
2022/05/28 00:24:45;;;;;;;10.90;7.25;;;13.80;99.90;;;;;;5273590;28;20371;-78
2022/05/28 00:27:16;;;;;;;9.82;7.20;;;13.90;99.90;;;;;;5273376;28;20031;-78
2022/05/28 00:29:47;;;;;;;8.75;6.43;;;13.80;99.90;;;;;;5291644;28;20439;-78
2022/05/28 00:32:17;;;;;;;10.25;6.72;;;13.60;99.90;;;;;;5273043;28;20028;-78
2022/05/28 00:34:48;;;;;;;11.25;6.82;;;13.80;99.90;;;;;;5291372;28;20113;-78
2022/05/28 00:37:19;;;;;;;8.52;6.78;;;13.80;99.90;;;;;;5273143;28;20045;-78
2022/05/28 00:39:50;;;;;;;9.25;6.93;;;13.90;99.90;;;;;;5291548;28;20023;-78
2022/05/28 00:42:21;;;;;;;9.30;6.03;;;14.00;99.90;;;;;;5272757;28;20019;-78
2022/05/28 00:44:52;;;;;;;8.10;7.30;;;13.50;99.90;;;;;;5291394;28;20015;-78
2022/05/28 00:47:23;;;;;;;12.68;7.05;;;13.40;99.90;;;;;;5273545;28;20023;-78
2022/05/28 00:49:54;;;;;;;8.43;6.95;;;13.60;99.90;;;;;;5291313;28;20030;-78
2022/05/28 00:52:27;;;;;;;9.35;7.22;;;13.80;99.90;;;;;;5291354;28;20027;-78
2022/05/28 00:54:58;;;;;;;8.30;6.57;;;13.80;99.90;;;;;;5291185;28;20034;-78
2022/05/28 00:57:29;;;;;;;7.15;5.90;;;14.00;99.90;;;;;;5291346;28;20040;-78
2022/05/28 01:00:00;;;;;;;8.13;5.90;;;13.40;99.90;;;;;;5291026;28;20048;-78
2022/05/28 01:02:50;;;;;;;8.88;6.68;;;13.50;99.90;;;;;;5291029;28;20080;-78
2022/05/28 01:05:30;;;;;;;9.90;7.03;;;13.50;99.90;;;;;;5272619;28;20081;-78
2022/05/28 01:08:25;;;;;;;7.80;6.43;;;13.10;99.90;;;;;;5291157;28;20061;-78
2022/05/28 01:11:16;;;;;;;10.90;7.00;;;13.20;99.90;;;;;;5272575;28;20032;-78
2022/05/28 01:14:16;;;;;;;9.02;7.20;;;13.50;99.90;;;;;;5272871;28;20027;-78
2022/05/28 01:16:52;;;;;;;8.05;6.65;;;13.10;99.90;;;;;;5255301;28;20524;-78
2022/05/28 01:19:35;;;;;;;7.50;6.70;;;13.30;99.90;;;;;;5290424;28;20501;-78
2022/05/28 01:22:18;;;;;;;9.20;6.90;;;13.20;99.90;;;;;;5272676;28;20027;-78
2022/05/28 01:25:07;;;;;;;9.98;7.28;;;13.30;99.90;;;;;;5272323;28;20069;-78
2022/05/28 01:27:46;;;;;;;11.68;7.18;;;13.60;99.90;;;;;;5272675;28;20073;-78
2022/05/28 01:30:18;;;;;;;12.13;7.00;;;13.20;99.90;;;;;;5290528;28;20036;-78
2022/05/28 01:32:52;;;;;;;10.27;6.70;;;12.90;99.90;;;;;;5290526;28;20032;-78
2022/05/28 01:35:26;;;;;;;7.10;6.25;;;13.10;99.90;;;;;;5272458;28;20420;-78
2022/05/28 01:37:58;;;;;;;9.82;6.82;;;13.30;99.90;;;;;;5290572;28;20034;-78
2022/05/28 01:40:29;;;;;;;9.10;5.88;;;13.30;99.90;;;;;;5290234;28;20348;-78
2022/05/28 01:43:05;;;;;;;10.38;6.78;;;13.60;99.90;;;;;;5278214;28;20020;-78
2022/05/28 01:45:40;;;;;;;7.25;6.15;;;13.70;99.90;;;;;;5269379;28;20103;-78
2022/05/28 01:48:12;;;;;;;7.15;6.43;;;13.40;99.90;;;;;;5269283;28;20032;-78
2022/05/28 01:50:51;;;;;;;9.00;6.65;;;13.40;99.90;;;;;;5267902;28;20536;-78
2022/05/28 01:56:15;;;;;;;11.70;5.75;;;13.70;99.90;;;;;;5269501;28;20031;-78
2022/05/28 01:58:46;;;;;;;8.63;6.00;;;13.80;99.90;;;;;;5269044;28;20464;-78
2022/05/28 02:01:17;;;;;;;8.25;6.70;;;13.50;99.90;;;;;;5269028;28;20097;-78
2022/05/28 02:03:51;;;;;;;9.45;7.03;;;13.40;99.90;;;;;;5269238;28;20096;-78
2022/05/28 02:06:21;;;;;;;9.02;6.20;;;13.40;99.90;;;;;;5269102;28;20016;-78
2022/05/28 02:08:55;;;;;;;9.02;6.70;;;13.60;99.90;;;;;;5269200;28;20138;-78
2022/05/28 02:11:33;;;;;;;6.78;6.13;;;13.60;99.90;;;;;;5269129;28;20039;-78
2022/05/28 02:14:10;;;;;;;8.30;6.47;;;13.30;99.90;;;;;;5269076;28;20487;-78
2022/05/28 02:17:19;;;;;;;11.02;7.00;;;13.30;99.90;;;;;;5268938;28;20024;-78
2022/05/28 02:20:02;;;;;;;7.72;6.20;;;13.50;99.90;;;;;;5230676;28;20032;-78
2022/05/28 02:22:45;;;;;;;7.47;6.50;;;13.60;99.90;;;;;;5269132;28;20099;-78
2022/05/28 02:25:28;;;;;;;7.32;6.47;;;13.50;99.90;;;;;;5268965;28;20054;-78
2022/05/28 02:28:01;;;;;;;10.07;6.13;;;13.30;99.90;;;;;;5267589;28;20073;-78
2022/05/28 02:30:32;;;;;;;7.50;6.35;;;13.40;99.90;;;;;;5268887;28;20439;-78
2022/05/28 02:33:06;;;;;;;8.23;7.20;;;13.50;99.90;;;;;;5282005;28;20035;-78
2022/05/28 02:35:37;;;;;;;7.40;6.60;;;13.60;99.90;;;;;;5294196;28;20023;-78
2022/05/28 02:38:07;;;;;;;12.15;6.72;;;13.50;99.90;;;;;;5294141;28;20024;-78
2022/05/28 02:40:38;;;;;;;7.93;6.30;;;13.30;99.90;;;;;;5294098;28;20505;-78
2022/05/28 02:43:09;;;;;;;7.70;5.72;;;13.40;99.90;;;;;;5294127;28;20045;-78
2022/05/28 02:45:40;;;;;;;7.22;6.28;;;13.40;99.90;;;;;;5293682;28;20080;-78
2022/05/28 02:48:11;;;;;;;9.18;7.63;;;13.30;99.90;;;;;;5293824;28;20019;-78
2022/05/28 02:50:47;;;;;;;14.55;8.07;;;13.00;99.90;;;;;;5294388;28;20504;-78
2022/05/28 02:53:24;;;;;;;14.00;8.45;;;12.80;99.90;;;;;;5294143;28;20107;-78
2022/05/28 02:56:00;;;;;;;10.32;7.97;;;13.20;99.90;;;;;;5294474;28;20058;-78
2022/05/28 02:58:35;;;;;;;10.27;7.45;;;13.50;99.90;;;;;;5294220;28;20382;-78
2022/05/28 03:01:23;;;;;;;10.15;7.35;;;13.50;99.90;;;;;;5293288;28;20550;-78
2022/05/28 03:03:55;;;;;;;9.02;7.25;;;13.60;99.90;;;;;;5293533;28;20020;-78
2022/05/28 03:06:26;;;;;;;9.82;7.53;;;13.60;99.90;;;;;;5275174;28;20474;-78
2022/05/28 03:08:57;;;;;;;11.93;7.75;;;13.60;99.90;;;;;;5293284;28;20051;-78
2022/05/28 03:11:28;;;;;;;9.98;7.10;;;13.60;99.90;;;;;;5293502;28;20067;-78
2022/05/28 03:13:59;;;;;;;8.55;7.32;;;13.70;99.90;;;;;;5272771;28;20020;-78
2022/05/28 03:16:30;;;;;;;12.25;7.82;;;13.70;99.90;;;;;;5272111;28;20054;-78
2022/05/28 03:19:01;;;;;;;8.95;7.93;;;13.80;99.90;;;;;;5272238;28;20055;-78
2022/05/28 03:21:34;;;;;;;8.13;6.78;;;13.80;99.90;;;;;;5272062;28;20025;-77
2022/05/28 03:24:07;;;;;;;11.95;8.27;;;14.00;99.90;;;;;;5272193;28;20031;-78
2022/05/28 03:26:38;;;;;;;14.00;8.60;;;13.90;99.90;;;;;;5271887;28;20021;-78
2022/05/28 03:29:08;;;;;;;14.48;8.13;;;14.10;99.90;;;;;;5271802;28;20093;-78
2022/05/28 03:31:39;;;;;;;10.73;8.90;;;14.10;99.90;;;;;;5272291;28;20032;-78
2022/05/28 03:34:10;;;;;;;11.10;8.15;;;14.20;99.90;;;;;;5271794;28;20097;-78
2022/05/28 03:36:41;;;;;;;11.50;8.68;;;14.20;99.90;;;;;;5270426;28;20052;-78
2022/05/28 03:39:12;;;;;;;11.18;8.10;;;14.40;99.90;;;;;;5271632;28;20032;-78
2022/05/28 03:41:43;;;;;;;10.40;8.30;;;14.60;99.90;;;;;;5273021;28;20020;-78
2022/05/28 03:44:13;;;;;;;9.80;8.02;;;14.50;99.90;;;;;;5292397;28;20379;-78
2022/05/28 03:46:44;;;;;;;10.80;9.60;;;14.60;99.90;;;;;;5292624;28;20031;-78
2022/05/28 03:49:23;;;;;;;13.52;8.93;;;14.70;99.90;;;;;;5293040;28;20068;-78
2022/05/28 03:51:55;;;;;;;15.15;9.55;;;14.90;99.90;;;;;;5292470;28;20032;-77
2022/05/28 03:54:26;;;;;;;14.68;9.93;;;14.90;99.90;;;;;;5292616;28;20023;-78
2022/05/28 03:57:04;;;;;;;12.68;9.73;;;15.00;99.90;;;;;;5292327;28;20027;-78
2022/05/28 03:59:35;;;;;;;13.07;9.93;;;15.00;99.90;;;;;;5292317;28;20028;-78
2022/05/28 04:02:06;;;;;;;16.70;11.02;;;15.10;99.90;;;;;;5292300;28;20440;-78
2022/05/28 04:04:36;;;;;;;15.23;9.98;;;15.10;99.90;;;;;;5292135;28;20034;-78
2022/05/28 04:07:13;;;;;;;14.77;9.85;;;15.20;99.90;;;;;;5292142;28;20026;-78
2022/05/28 04:09:44;;;;;;;11.98;10.07;;;15.20;99.90;;;;;;5291992;28;20035;-78
2022/05/28 04:12:15;;;;;;;12.45;9.75;;;15.50;99.90;;;;;;5291851;28;20031;-78
2022/05/28 04:14:46;;;;;;;14.02;10.13;;;15.40;99.90;;;;;;5291892;28;20042;-78
2022/05/28 04:17:17;;;;;;;15.27;9.77;;;15.60;99.90;;;;;;5291912;28;20034;-78
2022/05/28 04:19:48;;;;;;;17.02;10.35;;;15.80;99.90;;;;;;5291624;28;20020;-78
2022/05/28 04:22:19;;;;;;;15.40;10.20;;;15.90;99.90;;;;;;5291879;28;20027;-78
2022/05/28 04:24:50;;;;;;;18.88;11.00;;;16.20;99.90;;;;;;5291713;28;20031;-78
2022/05/28 04:27:21;;;;;;;19.55;10.80;;;16.40;99.90;;;;;;5292005;28;20028;-78
2022/05/28 04:29:52;;;;;;;13.80;9.27;;;16.10;99.90;;;;;;5291783;28;20088;-78
2022/05/28 04:32:23;;;;;;;17.70;10.30;;;16.20;99.90;;;;;;5291660;28;20081;-78
2022/05/28 04:34:54;;;;;;;16.48;10.75;;;16.50;99.90;;;;;;5291565;28;20020;-78
2022/05/28 04:37:25;;;;;;;16.20;10.57;;;16.70;99.90;;;;;;5291559;28;20106;-78
2022/05/28 04:39:56;;;;;;;15.38;10.77;;;16.70;99.90;;;;;;5291330;28;20450;-78
2022/05/28 04:42:26;;;;;;;17.25;10.13;;;16.80;99.90;;;;;;5291541;28;20026;-78
2022/05/28 04:44:57;;;;;;;16.92;10.25;;;17.00;99.90;;;;;;5291169;28;20374;-78
2022/05/28 04:47:28;;;;;;;24.77;13.25;;;17.10;99.90;;;;;;5291299;28;20494;-78
2022/05/28 04:49:59;;;;;;;23.67;13.52;;;16.90;99.90;;;;;;5291086;28;20435;-78
2022/05/28 04:52:29;;;;;;;37.45;21.75;;;16.90;99.90;;;;;;5291164;27;20106;-78
2022/05/28 04:55:00;;;;;;;32.22;18.95;;;17.20;99.90;;;;;;5290709;28;20020;-78
2022/05/28 04:57:31;;;;;;;28.25;17.40;;;17.50;99.90;;;;;;5291187;28;20421;-78
2022/05/28 05:00:06;;;;;;;25.25;17.13;;;17.90;99.90;;;;;;5290777;28;20089;-79
2022/05/28 05:02:37;;;;;;;22.15;13.88;;;18.10;99.90;;;;;;5291167;28;20020;-79
2022/05/28 05:05:09;;;;;;;24.48;15.30;;;18.30;99.90;;;;;;5291151;28;20475;-79
2022/05/28 05:07:39;;;;;;;25.63;16.65;;;18.40;99.90;;;;;;5290977;28;20077;-78
2022/05/28 05:10:11;;;;;;;22.58;14.77;;;18.40;99.90;;;;;;5290812;28;20478;-78
2022/05/28 05:12:42;;;;;;;24.70;14.43;;;18.60;99.90;;;;;;5291100;28;20031;-78
2022/05/28 05:15:13;;;;;;;22.20;13.98;;;18.90;99.90;;;;;;5290835;28;20026;-79
2022/05/28 05:17:44;;;;;;;26.20;13.35;;;19.10;99.90;;;;;;5289509;28;20028;-77
2022/05/28 05:20:15;;;;;;;22.08;13.63;;;19.30;99.90;;;;;;5290525;28;20117;-77
2022/05/28 05:22:46;;;;;;;23.83;11.82;;;19.40;99.90;;;;;;5290749;28;20031;-77
2022/05/28 05:25:16;;;;;;;20.42;11.98;;;19.70;99.90;;;;;;5290668;28;20035;-77
2022/05/28 05:27:47;;;;;;;17.00;11.38;;;19.90;99.90;;;;;;5291005;28;20080;-77
2022/05/28 05:30:18;;;;;;;15.05;10.32;;;19.70;99.90;;;;;;5290291;28;20032;-77
2022/05/28 05:32:49;;;;;;;14.43;9.98;;;19.80;99.90;;;;;;5290548;28;20023;-77
2022/05/28 05:35:20;;;;;;;14.95;9.35;;;19.60;99.90;;;;;;5290511;28;20478;-77
2022/05/28 05:37:53;;;;;;;10.90;8.00;;;19.70;99.90;;;;;;5290439;28;20038;-77
2022/05/28 05:40:24;;;;;;;10.35;6.93;;;20.00;99.90;;;;;;5290397;28;20019;-77
2022/05/28 05:42:58;;;;;;;7.60;5.65;;;20.30;99.90;;;;;;5290428;28;20031;-77
2022/05/28 05:45:29;;;;;;;8.10;6.05;;;20.20;99.90;;;;;;5290355;28;20028;-77
2022/05/28 05:48:00;;;;;;;7.03;5.60;;;20.20;99.90;;;;;;5290353;28;20031;-77
2022/05/28 05:50:30;;;;;;;5.82;5.22;;;20.30;99.90;;;;;;5290064;28;20090;-77
2022/05/28 05:53:01;;;;;;;6.35;5.32;;;20.40;99.90;;;;;;5290346;28;20034;-77
2022/05/28 05:55:32;;;;;;;6.80;5.50;;;20.40;99.90;;;;;;5289865;28;20019;-77
2022/05/28 05:58:04;;;;;;;8.32;5.72;;;20.30;99.90;;;;;;5290150;28;20114;-77
2022/05/28 06:00:35;;;;;;;8.25;5.30;;;20.50;99.90;;;;;;5289908;28;20044;-77
2022/05/28 06:03:06;;;;;;;9.93;5.93;;;20.30;99.90;;;;;;5290056;28;20038;-77
2022/05/28 06:05:37;;;;;;;5.22;4.63;;;20.90;99.90;;;;;;5289969;28;20028;-77
2022/05/28 06:08:08;;;;;;;6.70;4.68;;;21.00;99.90;;;;;;5276196;28;20023;-78
2022/05/28 06:10:39;;;;;;;8.75;4.75;;;21.20;99.90;;;;;;5294416;28;20038;-77
2022/05/28 06:13:10;;;;;;;6.85;4.70;;;21.30;99.90;;;;;;5294168;28;20062;-78
2022/05/28 06:15:41;;;;;;;5.93;4.55;;;21.30;99.90;;;;;;5294699;28;20031;-77
2022/05/28 06:18:15;;;;;;;6.22;4.50;;;21.40;99.90;;;;;;5294208;28;20538;-78
2022/05/28 06:20:49;;;;;;;6.32;4.75;;;21.40;99.90;;;;;;5294369;28;20396;-77
2022/05/28 06:23:20;;;;;;;5.75;4.63;;;21.60;99.90;;;;;;5294025;28;20035;-80
2022/05/28 06:25:51;;;;;;;7.28;5.35;;;21.90;99.90;;;;;;5293959;28;20106;-77
2022/05/28 06:28:22;;;;;;;7.78;4.63;;;21.90;99.90;;;;;;5294063;28;20020;-79
2022/05/28 06:30:58;;;;;;;7.60;5.07;;;22.00;99.90;;;;;;5293915;28;20046;-77
2022/05/28 06:33:29;;;;;;;9.00;5.13;;;22.10;99.90;;;;;;5294028;28;20027;-80
2022/05/28 06:36:02;;;;;;;5.30;4.20;;;22.20;99.90;;;;;;5293758;28;20027;-77
2022/05/28 06:38:33;;;;;;;9.15;5.55;;;22.40;99.90;;;;;;5293737;28;20478;-78
2022/05/28 06:41:04;;;;;;;11.05;5.55;;;22.40;99.90;;;;;;5293663;28;20039;-80
2022/05/28 06:43:35;;;;;;;8.02;5.60;;;22.60;99.90;;;;;;5293488;28;20051;-78
2022/05/28 06:46:08;;;;;;;9.20;6.25;;;22.80;99.90;;;;;;5294178;28;20452;-81
2022/05/28 06:48:39;;;;;;;10.27;6.55;;;22.70;99.90;;;;;;5286402;28;20379;-77
2022/05/28 06:51:10;;;;;;;11.95;6.80;;;22.80;99.90;;;;;;5275103;28;20487;-80
2022/05/28 06:53:47;;;;;;;13.43;7.88;;;22.90;99.90;;;;;;5293482;28;20023;-77
2022/05/28 06:56:19;;;;;;;13.88;7.10;;;23.10;99.90;;;;;;5293611;28;20031;-78
2022/05/28 06:58:50;;;;;;;10.57;6.05;;;23.00;99.90;;;;;;5293693;28;20020;-80
2022/05/28 07:01:21;;;;;;;13.38;6.35;;;23.30;99.90;;;;;;5274845;28;20067;-79
2022/05/28 07:03:51;;;;;;;13.95;7.45;;;23.40;99.90;;;;;;5293469;28;20024;-78
2022/05/28 07:06:23;;;;;;;12.93;7.07;;;23.40;99.90;;;;;;5293145;28;20020;-78
2022/05/28 07:08:53;;;;;;;10.80;5.95;;;23.80;99.90;;;;;;5292855;28;20111;-80
2022/05/28 07:11:24;;;;;;;9.73;5.97;;;24.10;99.90;;;;;;5274663;28;20435;-78
2022/05/28 07:13:55;;;;;;;8.82;5.53;;;24.10;99.90;;;;;;5293048;28;20012;-79
2022/05/28 07:16:26;;;;;;;11.40;6.25;;;24.20;99.90;;;;;;5293135;28;20019;-78
2022/05/28 07:18:57;;;;;;;10.98;6.00;;;24.30;99.90;;;;;;5291070;28;20023;-78
2022/05/28 07:21:28;;;;;;;11.90;5.32;;;24.60;99.90;;;;;;5293140;27;20471;-78
2022/05/28 07:23:59;;;;;;;7.90;5.38;;;24.70;99.90;;;;;;5292731;28;20073;-78
2022/05/28 07:26:30;;;;;;;6.95;4.20;;;24.50;99.90;;;;;;5272180;28;20036;-78
2022/05/28 07:29:01;;;;;;;8.52;4.82;;;24.60;99.90;;;;;;5285429;28;20074;-78
2022/05/28 07:31:32;;;;;;;8.60;5.35;;;24.80;99.90;;;;;;5284975;28;20072;-78
2022/05/28 07:34:02;;;;;;;6.88;4.38;;;24.90;99.90;;;;;;5279484;28;20022;-78
2022/05/28 07:36:35;;;;;;;6.38;4.20;;;24.80;99.90;;;;;;5292624;28;20337;-78
2022/05/28 07:39:06;;;;;;;7.65;4.38;;;24.80;99.90;;;;;;5274158;28;20068;-78
2022/05/28 07:41:37;;;;;;;6.20;3.97;;;25.00;99.90;;;;;;5292624;28;20032;-78
2022/05/28 07:44:08;;;;;;;7.45;4.40;;;25.10;99.90;;;;;;5292447;28;20321;-79
2022/05/28 07:46:39;;;;;;;8.52;4.22;;;25.00;99.90;;;;;;5292650;28;20055;-78
2022/05/28 07:49:10;;;;;;;8.45;5.40;;;25.20;99.90;;;;;;5292333;28;20024;-78
2022/05/28 07:51:41;;;;;;;8.40;6.28;;;25.30;99.90;;;;;;5282672;28;20412;-78
2022/05/28 07:54:13;;;;;;;12.40;6.40;;;25.40;99.90;;;;;;5286837;28;20027;-79
2022/05/28 07:56:43;;;;;;;10.15;6.18;;;25.60;99.90;;;;;;5280771;28;20028;-79
2022/05/28 07:59:14;;;;;;;11.45;6.65;;;25.70;99.90;;;;;;5275293;28;20372;-78
2022/05/28 08:01:45;;;;;;;16.95;7.40;;;25.90;99.90;;;;;;5282131;28;20089;-78
2022/05/28 08:04:16;;;;;;;12.07;6.82;;;25.90;99.90;;;;;;5271368;28;20020;-80
2022/05/28 08:06:47;;;;;;;10.50;6.57;;;25.70;99.90;;;;;;5271244;28;20032;-79
2022/05/28 08:09:17;;;;;;;10.65;6.70;;;26.10;99.90;;;;;;5271125;28;20020;-78
2022/05/28 08:11:48;;;;;;;11.32;6.75;;;25.90;99.90;;;;;;5272769;28;20040;-80
2022/05/28 08:14:19;;;;;;;9.02;6.50;;;25.80;99.90;;;;;;5292141;27;20478;-79
2022/05/28 08:16:50;;;;;;;10.50;5.60;;;26.00;99.90;;;;;;5290922;28;20058;-78
2022/05/28 08:19:21;;;;;;;9.40;5.93;;;26.20;99.90;;;;;;5292193;28;20448;-79
2022/05/28 08:24:41;;;;;;;8.20;5.65;;;26.50;99.90;;;;;;5292176;28;20096;-79
2022/05/28 08:27:11;;;;;;;11.68;5.25;;;26.50;99.90;;;;;;5291731;28;20032;-79
2022/05/28 08:29:42;;;;;;;5.55;4.30;;;26.60;99.90;;;;;;5289468;28;20077;-78
2022/05/28 08:32:16;;;;;;;6.70;4.03;;;26.90;99.90;;;;;;5291660;28;20043;-78
2022/05/28 08:34:47;;;;;;;8.15;4.13;;;26.90;99.90;;;;;;5291419;28;20024;-79
2022/05/28 08:37:18;;;;;;;8.43;4.10;;;26.80;99.90;;;;;;5291431;28;20084;-78
2022/05/28 08:39:49;;;;;;;6.50;3.78;;;27.10;99.90;;;;;;5291340;28;20475;-79
2022/05/28 08:42:23;;;;;;;34.95;6.63;;;26.90;99.90;;;;;;5291536;28;20134;-78
2022/05/28 08:44:56;;;;;;;21.10;5.28;;;27.00;99.90;;;;;;5291467;28;20051;-79
2022/05/28 08:47:35;;;;;;;7.95;4.63;;;27.20;99.90;;;;;;5291410;28;20051;-80
2022/05/28 08:50:07;;;;;;;10.40;4.40;;;27.30;99.90;;;;;;5291419;28;20028;-81
2022/05/28 08:52:49;;;;;;;6.82;3.90;;;27.50;99.90;;;;;;5291672;28;20039;-79
2022/05/28 08:55:24;;;;;;;7.63;4.05;;;27.40;99.90;;;;;;5272908;28;20490;-79
2022/05/28 08:58:07;;;;;;;6.97;3.95;;;27.60;99.90;;;;;;5291272;28;20110;-78
2022/05/28 09:01:13;;;;;;;6.05;3.92;;;27.20;99.90;;;;;;5290856;28;20066;-79
2022/05/28 09:03:44;;;;;;;8.30;4.20;;;27.30;99.90;;;;;;5237678;28;20039;-79
2022/05/28 09:06:20;;;;;;;6.75;3.95;;;27.30;99.90;;;;;;5291441;28;20023;-80
2022/05/28 09:08:54;;;;;;;6.88;3.90;;;27.80;99.90;;;;;;5290982;28;20028;-81
2022/05/28 09:11:35;;;;;;;6.80;3.85;;;27.70;99.90;;;;;;5290756;28;20485;-79
2022/05/28 09:14:27;;;;;;;8.75;4.28;;;27.70;99.90;;;;;;5291147;28;20032;-77
2022/05/28 09:17:28;;;;;;;7.15;3.85;;;28.00;99.90;;;;;;5290872;28;20031;-79
2022/05/28 09:20:08;;;;;;;5.78;3.72;;;27.90;99.90;;;;;;5290795;28;20024;-78
2022/05/28 09:22:39;;;;;;;5.00;4.13;;;27.70;99.90;;;;;;5290923;28;20027;-81
2022/05/28 09:25:11;;;;;;;6.85;4.18;;;27.70;99.90;;;;;;5291124;28;20491;-82
2022/05/28 09:27:45;;;;;;;7.07;4.32;;;27.40;99.90;;;;;;5290702;28;20030;-79
2022/05/28 09:30:53;;;;;;;11.82;4.18;;;27.90;99.90;;;;;;5290582;28;20028;-78
2022/05/28 09:34:05;;;;;;;6.72;4.00;;;27.60;99.90;;;;;;5289585;28;20028;-81
2022/05/28 09:37:04;;;;;;;6.15;3.58;;;27.70;99.90;;;;;;5290626;28;20085;-78
2022/05/28 09:40:16;;;;;;;5.53;3.92;;;28.10;99.90;;;;;;5289370;28;20032;-84
2022/05/28 09:43:37;;;;;;;6.50;4.57;;;28.40;99.90;;;;;;5262233;28;20044;-79
2022/05/28 09:46:27;;;;;;;11.75;4.68;;;27.80;99.90;;;;;;5167916;28;20026;-77
2022/05/28 09:49:11;;;;;;;8.95;4.57;;;28.30;99.90;;;;;;5271507;28;20391;-77
2022/05/28 09:52:09;;;;;;;8.90;4.50;;;27.70;99.90;;;;;;5288840;28;20031;-77
2022/05/28 09:54:40;;;;;;;7.97;4.07;;;28.50;99.90;;;;;;5289754;28;20507;-79
2022/05/28 09:57:23;;;;;;;6.55;4.25;;;28.50;99.90;;;;;;5290233;28;20065;-83
2022/05/28 10:00:03;;;;;;;8.23;4.28;;;28.30;99.90;;;;;;5290254;28;20124;-80
2022/05/28 10:02:43;;;;;;;6.00;4.07;;;28.40;99.90;;;;;;5270664;28;20044;-80
2022/05/28 10:05:47;;;;;;;8.70;4.47;;;28.00;99.90;;;;;;5283090;28;20028;-78
2022/05/28 10:08:18;;;;;;;5.22;4.03;;;28.80;99.90;;;;;;5256183;28;20039;-80
2022/05/28 10:10:54;;;;;;;7.50;4.03;;;29.20;99.90;;;;;;5274983;28;20031;-79
2022/05/28 10:13:28;;;;;;;6.28;3.90;;;28.20;99.90;;;;;;5269040;28;20024;-82
2022/05/28 10:16:01;;;;;;;8.43;4.00;;;28.50;99.90;;;;;;5269549;28;20017;-83
2022/05/28 10:18:36;;;;;;;4.70;3.75;;;28.50;99.90;;;;;;5269217;28;20027;-82
2022/05/28 10:21:14;;;;;;;7.93;3.95;;;28.60;99.90;;;;;;5272945;28;20016;-80
2022/05/28 10:23:51;;;;;;;4.43;3.20;;;28.40;99.90;;;;;;5290908;28;20024;-80
2022/05/28 10:26:40;;;;;;;6.28;3.85;;;28.60;99.90;;;;;;5288210;28;20459;-78
2022/05/28 10:29:19;;;;;;;5.88;3.40;;;28.50;99.90;;;;;;5269326;28;20036;-81
2022/05/28 10:31:52;;;;;;;4.90;3.30;;;28.90;99.90;;;;;;5270415;28;20117;-83
2022/05/28 10:34:36;;;;;;;5.78;3.55;;;29.20;99.90;;;;;;5269350;28;20024;-81
2022/05/28 10:37:12;;;;;;;7.03;3.45;;;29.00;99.90;;;;;;5269046;28;20475;-82
2022/05/28 10:39:43;;;;;;;7.03;2.92;;;29.00;99.90;;;;;;5266484;28;20024;-81
2022/05/28 10:42:16;;;;;;;6.55;3.38;;;28.80;99.90;;;;;;5268742;28;20028;-79
2022/05/28 10:44:48;;;;;;;6.25;3.78;;;29.30;99.90;;;;;;5268853;28;20047;-80
2022/05/28 10:47:45;;;;;;;5.22;3.42;;;29.20;99.90;;;;;;5250626;28;20032;-81
2022/05/28 10:50:36;;;;;;;4.95;3.38;;;29.30;99.90;;;;;;5268532;28;20097;-82
2022/05/28 10:53:22;;;;;;;10.07;3.15;;;29.40;99.90;;;;;;5274783;28;20027;-81
2022/05/28 10:56:15;;;;;;;4.20;2.80;;;29.00;99.90;;;;;;5285803;28;20026;-82
2022/05/28 10:59:11;;;;;;;3.70;2.70;;;29.20;99.90;;;;;;5287982;28;20032;-81
2022/05/28 11:02:13;;;;;;;3.28;2.42;;;29.00;99.90;;;;;;5254098;28;20079;-79
2022/05/28 11:04:55;;;;;;;4.28;2.15;;;29.40;99.90;;;;;;5277997;28;20539;-78
2022/05/28 11:07:38;;;;;;;6.55;2.65;;;28.90;99.90;;;;;;5293816;28;20023;-78
2022/05/28 11:10:17;;;;;;;7.60;3.03;;;29.20;99.90;;;;;;5293319;28;20027;-82
2022/05/28 11:13:11;;;;;;;6.55;2.17;;;29.20;99.90;;;;;;5287004;28;20024;-81
2022/05/28 11:16:15;;;;;;;5.00;2.80;;;28.30;99.90;;;;;;5269388;28;20081;-80
2022/05/28 11:19:13;;;;;;;6.50;2.33;;;29.20;99.90;;;;;;5276354;28;20054;-77
2022/05/28 11:22:00;;;;;;;4.75;2.42;;;28.50;99.90;;;;;;5291228;28;20058;-81
2022/05/28 11:24:52;;;;;;;4.30;2.83;;;28.60;99.90;;;;;;5286569;28;20053;-82
2022/05/28 11:27:27;;;;;;;3.20;2.20;;;28.60;99.90;;;;;;5294531;28;20016;-82
2022/05/28 11:30:22;;;;;;;5.40;2.95;;;28.80;99.90;;;;;;5290595;28;20023;-80
2022/05/28 11:33:08;;;;;;;5.32;2.60;;;29.10;99.90;;;;;;5284657;28;20032;-82
2022/05/28 11:35:42;;;;;;;4.32;2.55;;;29.20;99.90;;;;;;5290135;28;20445;-79
2022/05/28 11:38:31;;;;;;;5.22;2.20;;;29.00;99.90;;;;;;5274844;28;20119;-81
2022/05/28 11:41:12;;;;;;;;;;;28.60;99.90;;;;;;5272148;28;20028;-83
2022/05/28 11:44:00;;;;;;;8.52;3.13;;;28.60;99.90;;;;;;5271678;28;19904;-82
2022/05/28 11:46:52;;;;;;;4.13;2.45;;;28.80;99.90;;;;;;5271540;28;20031;-82
2022/05/28 11:52:32;;;;;;;5.60;2.78;;;28.80;99.90;;;;;;5272088;28;20404;-81
2022/05/28 11:55:23;;;;;;;5.53;1.90;;;28.80;99.90;;;;;;5271622;28;20395;-82
2022/05/28 11:58:15;;;;;;;2.63;1.92;;;29.50;99.90;;;;;;5271513;28;20024;-81
2022/05/28 12:00:54;;;;;;;4.80;2.10;;;28.40;99.90;;;;;;5271006;28;20576;-82
2022/05/28 12:03:30;;;;;;;4.83;1.70;;;29.00;99.90;;;;;;5271350;28;20028;-82
2022/05/28 12:06:08;;;;;;;6.00;1.77;;;28.70;99.90;;;;;;5252917;28;20478;-81
2022/05/28 12:08:55;;;;;;;5.55;1.88;;;29.00;99.90;;;;;;5253081;28;20498;-82
2022/05/28 12:11:49;;;;;;;2.90;1.92;;;28.70;99.90;;;;;;5271304;28;20040;-82
2022/05/28 12:14:31;;;;;;;5.97;1.80;;;29.00;99.90;;;;;;5270913;28;20020;-80
2022/05/28 12:17:09;;;;;;;3.83;1.63;;;29.00;99.90;;;;;;5271273;28;20027;-82
2022/05/28 12:19:51;;;;;;;6.13;1.90;;;29.10;99.90;;;;;;5271108;28;20028;-82
2022/05/28 12:22:29;;;;;;;3.25;1.58;;;28.90;99.90;;;;;;5278066;28;20076;-82
2022/05/28 12:25:13;;;;;;;4.53;1.70;;;29.00;99.90;;;;;;5292136;27;20024;-83
2022/05/28 12:27:54;;;;;;;3.08;1.70;;;28.80;99.90;;;;;;5292229;28;20056;-82
2022/05/28 12:30:48;;;;;;;5.32;2.00;;;28.90;99.90;;;;;;5290429;28;20040;-81
2022/05/28 12:33:25;;;;;;;3.63;1.85;;;28.80;99.90;;;;;;5292008;28;20023;-83
2022/05/28 12:36:09;;;;;;;4.53;1.65;;;28.20;99.90;;;;;;5291654;28;20035;-82
2022/05/28 12:38:59;;;;;;;7.28;2.08;;;29.00;99.90;;;;;;5290363;28;20027;-82
2022/05/28 12:41:37;;;;;;;8.57;2.05;;;28.90;99.90;;;;;;5291829;28;20368;-84
2022/05/28 12:44:21;;;;;;;5.85;2.05;;;28.90;99.90;;;;;;5291553;28;20027;-80
2022/05/28 12:46:56;;;;;;;2.45;1.50;;;29.10;99.90;;;;;;5291553;28;20106;-80
2022/05/28 12:49:46;;;;;;;4.60;1.75;;;28.90;99.90;;;;;;5291586;28;20019;-83
2022/05/28 12:52:36;;;;;;;5.18;2.08;;;28.80;99.90;;;;;;5290680;28;20066;-81
2022/05/28 12:55:36;;;;;;;3.47;1.65;;;28.90;99.90;;;;;;5268181;28;20034;-80
2022/05/28 12:58:11;;;;;;;2.55;1.83;;;28.20;99.90;;;;;;5291326;28;20508;-82
2022/05/28 13:00:54;;;;;;;3.70;1.90;;;28.70;99.90;;;;;;5291005;28;20391;-79
2022/05/28 13:03:37;;;;;;;6.45;1.90;;;28.40;99.90;;;;;;5291051;28;20024;-78
2022/05/28 13:06:13;;;;;;;4.43;2.00;;;28.80;99.90;;;;;;5290844;28;20027;-78
2022/05/28 13:08:50;;;;;;;3.53;1.88;;;28.90;99.90;;;;;;5290971;28;20035;-80
2022/05/28 13:11:29;;;;;;;4.70;2.40;;;28.60;99.90;;;;;;5272587;28;20495;-82
2022/05/28 13:14:03;;;;;;;2.92;1.88;;;29.00;99.90;;;;;;5290943;28;20500;-82
2022/05/28 13:17:11;;;;;;;8.30;2.22;;;28.80;99.90;;;;;;5290251;28;20498;-82
2022/05/28 13:19:46;;;;;;;3.65;1.58;;;28.80;99.90;;;;;;5290874;28;20375;-81
2022/05/28 13:22:29;;;;;;;5.38;1.80;;;28.80;99.90;;;;;;5290780;28;20094;-81
2022/05/28 13:25:21;;;;;;;4.55;2.15;;;28.40;99.90;;;;;;5290617;28;20031;-80
2022/05/28 13:28:13;;;;;;;3.47;2.00;;;28.90;99.90;;;;;;5290689;28;20024;-84
2022/05/28 13:30:48;;;;;;;3.15;1.80;;;28.50;99.90;;;;;;5290695;28;20106;-84
2022/05/28 13:33:20;;;;;;;2.50;1.75;;;28.50;99.90;;;;;;5290682;28;20058;-83
2022/05/28 13:35:57;;;;;;;5.78;1.90;;;28.40;99.90;;;;;;5290450;28;20043;-83
2022/05/28 13:38:38;;;;;;;3.60;1.70;;;28.10;99.90;;;;;;5290707;28;20047;-83
2022/05/28 13:41:12;;;;;;;3.70;1.45;;;28.20;99.90;;;;;;5290382;28;20707;-83